sensor_id;sensor_type;location;lat;lon;timestamp;P1;durP1;ratioP1;P2;durP2;ratioP2
73239;SDS011;61452;40.054;4.110;2023-05-16T00:03:34;15.70;;;6.43;;
73239;SDS011;61452;40.054;4.110;2023-05-16T00:08:38;12.98;;;5.18;;
73239;SDS011;61452;40.054;4.110;2023-05-16T00:13:41;14.00;;;5.43;;
73239;SDS011;61452;40.054;4.110;2023-05-16T00:18:43;10.10;;;4.57;;
73239;SDS011;61452;40.054;4.110;2023-05-16T00:23:46;16.30;;;5.15;;
73239;SDS011;61452;40.054;4.110;2023-05-16T00:28:48;13.27;;;5.10;;
73239;SDS011;61452;40.054;4.110;2023-05-16T00:33:50;12.80;;;5.10;;
73239;SDS011;61452;40.054;4.110;2023-05-16T00:38:52;13.60;;;5.55;;
73239;SDS011;61452;40.054;4.110;2023-05-16T00:43:54;17.25;;;5.22;;
73239;SDS011;61452;40.054;4.110;2023-05-16T00:48:56;11.43;;;4.85;;
73239;SDS011;61452;40.054;4.110;2023-05-16T00:53:58;14.88;;;6.57;;
73239;SDS011;61452;40.054;4.110;2023-05-16T00:59:01;14.60;;;5.22;;
73239;SDS011;61452;40.054;4.110;2023-05-16T01:04:04;12.35;;;4.93;;
73239;SDS011;61452;40.054;4.110;2023-05-16T01:09:07;14.40;;;5.03;;
73239;SDS011;61452;40.054;4.110;2023-05-16T01:14:32;12.45;;;4.85;;
73239;SDS011;61452;40.054;4.110;2023-05-16T01:20:05;12.30;;;4.88;;
73239;SDS011;61452;40.054;4.110;2023-05-16T01:30:49;12.30;;;4.55;;
73239;SDS011;61452;40.054;4.110;2023-05-16T01:35:54;11.07;;;4.72;;
73239;SDS011;61452;40.054;4.110;2023-05-16T01:41:11;14.25;;;4.50;;
73239;SDS011;61452;40.054;4.110;2023-05-16T01:46:25;11.25;;;4.63;;
73239;SDS011;61452;40.054;4.110;2023-05-16T01:51:31;12.18;;;4.30;;
73239;SDS011;61452;40.054;4.110;2023-05-16T01:56:36;13.50;;;4.55;;
73239;SDS011;61452;40.054;4.110;2023-05-16T02:01:39;9.98;;;3.67;;
73239;SDS011;61452;40.054;4.110;2023-05-16T02:06:41;12.27;;;4.10;;
73239;SDS011;61452;40.054;4.110;2023-05-16T02:11:43;9.57;;;4.10;;
73239;SDS011;61452;40.054;4.110;2023-05-16T02:16:48;8.55;;;4.18;;
73239;SDS011;61452;40.054;4.110;2023-05-16T02:21:50;9.27;;;4.03;;
73239;SDS011;61452;40.054;4.110;2023-05-16T02:26:53;8.40;;;4.15;;
73239;SDS011;61452;40.054;4.110;2023-05-16T02:31:55;11.70;;;4.25;;
73239;SDS011;61452;40.054;4.110;2023-05-16T02:36:57;12.73;;;4.68;;
73239;SDS011;61452;40.054;4.110;2023-05-16T02:41:59;10.10;;;3.75;;
73239;SDS011;61452;40.054;4.110;2023-05-16T02:47:01;10.98;;;4.00;;
73239;SDS011;61452;40.054;4.110;2023-05-16T02:52:04;10.55;;;3.83;;
73239;SDS011;61452;40.054;4.110;2023-05-16T02:57:06;9.77;;;4.03;;
73239;SDS011;61452;40.054;4.110;2023-05-16T03:02:08;10.80;;;3.72;;
73239;SDS011;61452;40.054;4.110;2023-05-16T03:07:10;9.98;;;3.80;;
73239;SDS011;61452;40.054;4.110;2023-05-16T03:12:12;12.02;;;4.05;;
73239;SDS011;61452;40.054;4.110;2023-05-16T03:17:14;13.30;;;3.65;;
73239;SDS011;61452;40.054;4.110;2023-05-16T03:22:16;9.73;;;3.25;;
73239;SDS011;61452;40.054;4.110;2023-05-16T03:27:18;12.98;;;3.83;;
73239;SDS011;61452;40.054;4.110;2023-05-16T03:32:23;6.72;;;3.20;;
73239;SDS011;61452;40.054;4.110;2023-05-16T03:37:25;9.57;;;3.50;;
73239;SDS011;61452;40.054;4.110;2023-05-16T03:42:28;9.95;;;4.05;;
73239;SDS011;61452;40.054;4.110;2023-05-16T03:47:30;10.18;;;3.63;;
73239;SDS011;61452;40.054;4.110;2023-05-16T03:52:32;10.85;;;3.53;;
73239;SDS011;61452;40.054;4.110;2023-05-16T03:57:35;12.50;;;4.22;;
73239;SDS011;61452;40.054;4.110;2023-05-16T04:02:42;11.23;;;3.65;;
73239;SDS011;61452;40.054;4.110;2023-05-16T04:07:45;15.48;;;3.38;;
73239;SDS011;61452;40.054;4.110;2023-05-16T04:12:47;15.05;;;3.72;;
73239;SDS011;61452;40.054;4.110;2023-05-16T04:17:49;10.40;;;3.88;;
73239;SDS011;61452;40.054;4.110;2023-05-16T04:22:52;11.13;;;4.00;;
73239;SDS011;61452;40.054;4.110;2023-05-16T04:27:54;9.07;;;3.38;;
73239;SDS011;61452;40.054;4.110;2023-05-16T04:32:56;9.95;;;3.33;;
73239;SDS011;61452;40.054;4.110;2023-05-16T04:38:00;17.90;;;4.35;;
73239;SDS011;61452;40.054;4.110;2023-05-16T04:43:02;11.02;;;3.50;;
73239;SDS011;61452;40.054;4.110;2023-05-16T04:48:04;11.02;;;3.45;;
73239;SDS011;61452;40.054;4.110;2023-05-16T04:53:07;12.27;;;4.18;;
73239;SDS011;61452;40.054;4.110;2023-05-16T04:58:08;17.52;;;3.97;;
73239;SDS011;61452;40.054;4.110;2023-05-16T05:03:10;16.60;;;4.20;;
73239;SDS011;61452;40.054;4.110;2023-05-16T05:08:13;13.55;;;3.85;;
73239;SDS011;61452;40.054;4.110;2023-05-16T05:13:15;17.13;;;4.95;;
73239;SDS011;61452;40.054;4.110;2023-05-16T05:18:17;13.80;;;4.38;;
73239;SDS011;61452;40.054;4.110;2023-05-16T05:23:19;16.58;;;4.03;;
73239;SDS011;61452;40.054;4.110;2023-05-16T05:28:21;14.10;;;3.55;;
73239;SDS011;61452;40.054;4.110;2023-05-16T05:33:26;9.10;;;3.22;;
73239;SDS011;61452;40.054;4.110;2023-05-16T05:38:31;10.07;;;4.10;;
73239;SDS011;61452;40.054;4.110;2023-05-16T05:43:33;10.73;;;3.38;;
73239;SDS011;61452;40.054;4.110;2023-05-16T05:48:35;17.20;;;3.30;;
73239;SDS011;61452;40.054;4.110;2023-05-16T05:53:38;8.02;;;3.00;;
73239;SDS011;61452;40.054;4.110;2023-05-16T05:58:41;11.85;;;3.70;;
73239;SDS011;61452;40.054;4.110;2023-05-16T06:03:43;14.52;;;4.40;;
73239;SDS011;61452;40.054;4.110;2023-05-16T06:08:45;15.88;;;4.35;;
73239;SDS011;61452;40.054;4.110;2023-05-16T06:13:47;11.90;;;3.10;;
73239;SDS011;61452;40.054;4.110;2023-05-16T06:18:49;13.80;;;4.00;;
73239;SDS011;61452;40.054;4.110;2023-05-16T06:23:51;15.85;;;4.20;;
73239;SDS011;61452;40.054;4.110;2023-05-16T06:28:54;18.20;;;4.57;;
73239;SDS011;61452;40.054;4.110;2023-05-16T06:33:56;20.77;;;4.00;;
73239;SDS011;61452;40.054;4.110;2023-05-16T06:38:58;15.38;;;4.32;;
73239;SDS011;61452;40.054;4.110;2023-05-16T06:44:00;12.73;;;4.20;;
73239;SDS011;61452;40.054;4.110;2023-05-16T06:49:02;20.20;;;4.38;;
73239;SDS011;61452;40.054;4.110;2023-05-16T06:54:05;18.00;;;3.90;;
73239;SDS011;61452;40.054;4.110;2023-05-16T06:59:07;14.75;;;4.40;;
73239;SDS011;61452;40.054;4.110;2023-05-16T07:04:09;17.85;;;3.70;;
73239;SDS011;61452;40.054;4.110;2023-05-16T07:09:11;16.50;;;4.22;;
73239;SDS011;61452;40.054;4.110;2023-05-16T07:14:13;21.10;;;4.75;;
73239;SDS011;61452;40.054;4.110;2023-05-16T07:19:15;20.50;;;4.70;;
73239;SDS011;61452;40.054;4.110;2023-05-16T07:24:18;11.63;;;4.15;;
73239;SDS011;61452;40.054;4.110;2023-05-16T07:29:20;16.58;;;4.82;;
73239;SDS011;61452;40.054;4.110;2023-05-16T07:34:22;18.15;;;5.13;;
73239;SDS011;61452;40.054;4.110;2023-05-16T07:39:24;18.65;;;4.60;;
73239;SDS011;61452;40.054;4.110;2023-05-16T07:44:26;16.65;;;4.43;;
73239;SDS011;61452;40.054;4.110;2023-05-16T07:49:29;17.90;;;4.20;;
73239;SDS011;61452;40.054;4.110;2023-05-16T07:54:31;21.17;;;4.65;;
73239;SDS011;61452;40.054;4.110;2023-05-16T07:59:33;17.00;;;4.38;;
73239;SDS011;61452;40.054;4.110;2023-05-16T08:04:36;16.95;;;4.38;;
73239;SDS011;61452;40.054;4.110;2023-05-16T08:09:39;19.17;;;5.53;;
73239;SDS011;61452;40.054;4.110;2023-05-16T08:14:41;21.85;;;5.47;;
73239;SDS011;61452;40.054;4.110;2023-05-16T08:19:43;14.00;;;4.07;;
73239;SDS011;61452;40.054;4.110;2023-05-16T08:24:45;19.75;;;5.05;;
73239;SDS011;61452;40.054;4.110;2023-05-16T08:29:47;15.75;;;4.63;;
73239;SDS011;61452;40.054;4.110;2023-05-16T08:34:49;21.35;;;5.00;;
73239;SDS011;61452;40.054;4.110;2023-05-16T08:39:51;13.15;;;4.25;;
73239;SDS011;61452;40.054;4.110;2023-05-16T08:44:54;19.48;;;5.72;;
73239;SDS011;61452;40.054;4.110;2023-05-16T08:49:56;19.10;;;4.47;;
73239;SDS011;61452;40.054;4.110;2023-05-16T08:55:00;15.55;;;4.65;;
73239;SDS011;61452;40.054;4.110;2023-05-16T09:00:12;19.67;;;5.45;;
73239;SDS011;61452;40.054;4.110;2023-05-16T09:05:15;18.70;;;5.60;;
73239;SDS011;61452;40.054;4.110;2023-05-16T09:15:20;19.33;;;5.43;;
73239;SDS011;61452;40.054;4.110;2023-05-16T09:20:22;22.13;;;5.38;;
73239;SDS011;61452;40.054;4.110;2023-05-16T09:25:25;23.00;;;5.28;;
73239;SDS011;61452;40.054;4.110;2023-05-16T09:30:33;20.23;;;5.18;;
73239;SDS011;61452;40.054;4.110;2023-05-16T09:35:35;20.65;;;5.35;;
73239;SDS011;61452;40.054;4.110;2023-05-16T09:40:45;21.17;;;5.45;;
73239;SDS011;61452;40.054;4.110;2023-05-16T09:45:48;24.60;;;5.80;;
73239;SDS011;61452;40.054;4.110;2023-05-16T09:50:50;19.00;;;4.72;;
73239;SDS011;61452;40.054;4.110;2023-05-16T09:56:04;17.98;;;5.28;;
73239;SDS011;61452;40.054;4.110;2023-05-16T10:01:15;27.80;;;5.57;;
73239;SDS011;61452;40.054;4.110;2023-05-16T10:06:18;18.20;;;5.07;;
73239;SDS011;61452;40.054;4.110;2023-05-16T10:11:21;20.00;;;5.53;;
73239;SDS011;61452;40.054;4.110;2023-05-16T10:16:23;18.35;;;5.18;;
73239;SDS011;61452;40.054;4.110;2023-05-16T10:26:30;22.83;;;5.22;;
73239;SDS011;61452;40.054;4.110;2023-05-16T10:31:33;19.42;;;4.43;;
73239;SDS011;61452;40.054;4.110;2023-05-16T10:36:36;18.60;;;4.57;;
73239;SDS011;61452;40.054;4.110;2023-05-16T10:59:40;22.83;;;5.78;;
73239;SDS011;61452;40.054;4.110;2023-05-16T11:04:44;22.27;;;5.43;;
73239;SDS011;61452;40.054;4.110;2023-05-16T11:09:52;16.25;;;5.10;;
73239;SDS011;61452;40.054;4.110;2023-05-16T11:15:18;19.30;;;4.32;;
73239;SDS011;61452;40.054;4.110;2023-05-16T11:20:30;21.85;;;4.43;;
73239;SDS011;61452;40.054;4.110;2023-05-16T11:25:35;18.27;;;4.68;;
73239;SDS011;61452;40.054;4.110;2023-05-16T11:30:42;16.98;;;4.78;;
73239;SDS011;61452;40.054;4.110;2023-05-16T11:35:59;15.18;;;4.40;;
73239;SDS011;61452;40.054;4.110;2023-05-16T11:41:16;15.30;;;4.22;;
73239;SDS011;61452;40.054;4.110;2023-05-16T11:46:19;27.30;;;5.97;;
73239;SDS011;61452;40.054;4.110;2023-05-16T11:51:21;18.95;;;5.50;;
73239;SDS011;61452;40.054;4.110;2023-05-16T11:56:23;17.90;;;5.03;;
73239;SDS011;61452;40.054;4.110;2023-05-16T12:01:45;19.50;;;5.55;;
73239;SDS011;61452;40.054;4.110;2023-05-16T12:06:57;23.83;;;5.53;;
73239;SDS011;61452;40.054;4.110;2023-05-16T12:12:02;23.35;;;6.53;;
73239;SDS011;61452;40.054;4.110;2023-05-16T12:17:07;24.45;;;5.75;;
73239;SDS011;61452;40.054;4.110;2023-05-16T12:22:16;25.30;;;6.80;;
73239;SDS011;61452;40.054;4.110;2023-05-16T12:27:21;26.80;;;6.45;;
73239;SDS011;61452;40.054;4.110;2023-05-16T12:32:24;26.77;;;6.80;;
73239;SDS011;61452;40.054;4.110;2023-05-16T12:37:26;26.83;;;7.03;;
73239;SDS011;61452;40.054;4.110;2023-05-16T12:42:28;26.33;;;7.45;;
73239;SDS011;61452;40.054;4.110;2023-05-16T12:47:34;24.58;;;7.28;;
73239;SDS011;61452;40.054;4.110;2023-05-16T12:52:45;25.42;;;6.82;;
73239;SDS011;61452;40.054;4.110;2023-05-16T12:57:50;30.70;;;7.47;;
73239;SDS011;61452;40.054;4.110;2023-05-16T13:02:52;28.55;;;6.97;;
73239;SDS011;61452;40.054;4.110;2023-05-16T13:07:55;25.42;;;6.85;;
73239;SDS011;61452;40.054;4.110;2023-05-16T13:12:57;25.92;;;7.05;;
73239;SDS011;61452;40.054;4.110;2023-05-16T13:18:00;30.15;;;6.90;;
73239;SDS011;61452;40.054;4.110;2023-05-16T13:23:03;24.15;;;7.18;;
73239;SDS011;61452;40.054;4.110;2023-05-16T13:28:06;28.67;;;7.78;;
73239;SDS011;61452;40.054;4.110;2023-05-16T13:33:08;24.63;;;6.45;;
73239;SDS011;61452;40.054;4.110;2023-05-16T13:38:10;23.17;;;6.28;;
73239;SDS011;61452;40.054;4.110;2023-05-16T13:43:12;20.77;;;6.18;;
73239;SDS011;61452;40.054;4.110;2023-05-16T13:48:16;28.75;;;6.97;;
73239;SDS011;61452;40.054;4.110;2023-05-16T13:53:18;25.35;;;6.80;;
73239;SDS011;61452;40.054;4.110;2023-05-16T13:58:20;23.33;;;6.72;;
73239;SDS011;61452;40.054;4.110;2023-05-16T14:03:22;24.52;;;6.25;;
73239;SDS011;61452;40.054;4.110;2023-05-16T14:08:25;25.75;;;6.75;;
73239;SDS011;61452;40.054;4.110;2023-05-16T14:13:27;22.23;;;7.43;;
73239;SDS011;61452;40.054;4.110;2023-05-16T14:18:29;23.52;;;5.88;;
73239;SDS011;61452;40.054;4.110;2023-05-16T14:23:31;26.02;;;6.28;;
73239;SDS011;61452;40.054;4.110;2023-05-16T14:28:33;22.95;;;5.25;;
73239;SDS011;61452;40.054;4.110;2023-05-16T14:33:36;24.77;;;7.60;;
73239;SDS011;61452;40.054;4.110;2023-05-16T14:38:38;22.30;;;6.10;;
73239;SDS011;61452;40.054;4.110;2023-05-16T14:43:40;20.75;;;6.05;;
73239;SDS011;61452;40.054;4.110;2023-05-16T14:48:42;24.48;;;6.05;;
73239;SDS011;61452;40.054;4.110;2023-05-16T14:53:44;19.95;;;6.05;;
73239;SDS011;61452;40.054;4.110;2023-05-16T14:58:47;23.38;;;5.80;;
73239;SDS011;61452;40.054;4.110;2023-05-16T15:03:49;21.33;;;6.85;;
73239;SDS011;61452;40.054;4.110;2023-05-16T15:08:56;25.55;;;6.53;;
73239;SDS011;61452;40.054;4.110;2023-05-16T15:13:59;21.92;;;6.45;;
73239;SDS011;61452;40.054;4.110;2023-05-16T15:19:02;23.23;;;6.18;;
73239;SDS011;61452;40.054;4.110;2023-05-16T15:24:04;26.08;;;6.65;;
73239;SDS011;61452;40.054;4.110;2023-05-16T15:29:07;25.50;;;5.65;;
73239;SDS011;61452;40.054;4.110;2023-05-16T15:34:09;27.30;;;5.88;;
73239;SDS011;61452;40.054;4.110;2023-05-16T15:39:12;20.63;;;5.72;;
73239;SDS011;61452;40.054;4.110;2023-05-16T15:44:14;21.33;;;6.47;;
73239;SDS011;61452;40.054;4.110;2023-05-16T15:49:16;18.98;;;5.85;;
73239;SDS011;61452;40.054;4.110;2023-05-16T15:54:19;21.23;;;6.30;;
73239;SDS011;61452;40.054;4.110;2023-05-16T15:59:21;21.73;;;5.68;;
73239;SDS011;61452;40.054;4.110;2023-05-16T16:04:23;23.02;;;7.05;;
73239;SDS011;61452;40.054;4.110;2023-05-16T16:09:26;20.50;;;5.47;;
73239;SDS011;61452;40.054;4.110;2023-05-16T16:14:28;18.15;;;5.43;;
73239;SDS011;61452;40.054;4.110;2023-05-16T16:19:30;24.67;;;6.15;;
73239;SDS011;61452;40.054;4.110;2023-05-16T16:24:35;19.83;;;5.38;;
73239;SDS011;61452;40.054;4.110;2023-05-16T16:29:38;22.98;;;5.97;;
73239;SDS011;61452;40.054;4.110;2023-05-16T16:34:40;17.05;;;4.70;;
73239;SDS011;61452;40.054;4.110;2023-05-16T16:39:42;21.13;;;5.75;;
73239;SDS011;61452;40.054;4.110;2023-05-16T16:44:44;18.30;;;6.60;;
73239;SDS011;61452;40.054;4.110;2023-05-16T16:49:46;19.63;;;5.63;;
73239;SDS011;61452;40.054;4.110;2023-05-16T16:54:48;21.25;;;5.85;;
73239;SDS011;61452;40.054;4.110;2023-05-16T16:59:51;17.92;;;5.53;;
73239;SDS011;61452;40.054;4.110;2023-05-16T17:04:53;19.70;;;5.57;;
73239;SDS011;61452;40.054;4.110;2023-05-16T17:09:55;20.17;;;5.45;;
73239;SDS011;61452;40.054;4.110;2023-05-16T17:14:57;19.63;;;6.43;;
73239;SDS011;61452;40.054;4.110;2023-05-16T17:20:00;24.70;;;6.47;;
73239;SDS011;61452;40.054;4.110;2023-05-16T17:25:06;21.33;;;5.93;;
73239;SDS011;61452;40.054;4.110;2023-05-16T17:30:09;22.58;;;5.68;;
73239;SDS011;61452;40.054;4.110;2023-05-16T17:35:11;20.10;;;5.47;;
73239;SDS011;61452;40.054;4.110;2023-05-16T17:40:13;16.92;;;5.53;;
73239;SDS011;61452;40.054;4.110;2023-05-16T17:45:18;20.73;;;6.38;;
73239;SDS011;61452;40.054;4.110;2023-05-16T17:50:20;16.83;;;5.25;;
73239;SDS011;61452;40.054;4.110;2023-05-16T17:55:23;18.20;;;5.50;;
73239;SDS011;61452;40.054;4.110;2023-05-16T18:00:26;22.58;;;5.35;;
73239;SDS011;61452;40.054;4.110;2023-05-16T18:05:28;16.65;;;5.20;;
73239;SDS011;61452;40.054;4.110;2023-05-16T18:10:30;16.83;;;5.07;;
73239;SDS011;61452;40.054;4.110;2023-05-16T18:15:51;24.27;;;6.30;;
73239;SDS011;61452;40.054;4.110;2023-05-16T18:20:54;20.60;;;6.10;;
73239;SDS011;61452;40.054;4.110;2023-05-16T18:25:56;21.67;;;5.60;;
73239;SDS011;61452;40.054;4.110;2023-05-16T18:30:58;24.77;;;6.10;;
73239;SDS011;61452;40.054;4.110;2023-05-16T18:36:00;23.17;;;5.78;;
73239;SDS011;61452;40.054;4.110;2023-05-16T18:41:02;18.42;;;5.32;;
73239;SDS011;61452;40.054;4.110;2023-05-16T18:46:05;17.08;;;6.25;;
73239;SDS011;61452;40.054;4.110;2023-05-16T18:51:07;21.95;;;6.35;;
73239;SDS011;61452;40.054;4.110;2023-05-16T18:56:09;18.40;;;5.80;;
73239;SDS011;61452;40.054;4.110;2023-05-16T19:01:11;22.27;;;6.15;;
73239;SDS011;61452;40.054;4.110;2023-05-16T19:06:14;20.88;;;6.07;;
73239;SDS011;61452;40.054;4.110;2023-05-16T19:11:16;18.80;;;5.80;;
73239;SDS011;61452;40.054;4.110;2023-05-16T19:16:19;20.15;;;6.53;;
73239;SDS011;61452;40.054;4.110;2023-05-16T19:21:21;19.40;;;6.55;;
73239;SDS011;61452;40.054;4.110;2023-05-16T19:26:23;13.98;;;5.10;;
73239;SDS011;61452;40.054;4.110;2023-05-16T19:31:25;22.73;;;6.53;;
73239;SDS011;61452;40.054;4.110;2023-05-16T19:36:27;17.98;;;5.93;;
73239;SDS011;61452;40.054;4.110;2023-05-16T19:41:29;18.05;;;6.35;;
73239;SDS011;61452;40.054;4.110;2023-05-16T19:46:32;18.85;;;6.40;;
73239;SDS011;61452;40.054;4.110;2023-05-16T19:51:34;21.40;;;6.28;;
73239;SDS011;61452;40.054;4.110;2023-05-16T19:56:42;18.42;;;5.57;;
73239;SDS011;61452;40.054;4.110;2023-05-16T20:01:44;21.40;;;6.22;;
73239;SDS011;61452;40.054;4.110;2023-05-16T20:06:46;19.42;;;6.28;;
73239;SDS011;61452;40.054;4.110;2023-05-16T20:11:49;22.92;;;6.07;;
73239;SDS011;61452;40.054;4.110;2023-05-16T20:16:51;18.58;;;6.45;;
73239;SDS011;61452;40.054;4.110;2023-05-16T20:21:53;18.65;;;5.70;;
73239;SDS011;61452;40.054;4.110;2023-05-16T20:26:56;21.70;;;6.22;;
73239;SDS011;61452;40.054;4.110;2023-05-16T20:31:58;19.63;;;5.70;;
73239;SDS011;61452;40.054;4.110;2023-05-16T20:37:01;19.60;;;5.82;;
73239;SDS011;61452;40.054;4.110;2023-05-16T20:42:03;18.27;;;5.78;;
73239;SDS011;61452;40.054;4.110;2023-05-16T20:47:11;20.70;;;5.05;;
73239;SDS011;61452;40.054;4.110;2023-05-16T20:52:13;13.80;;;4.68;;
73239;SDS011;61452;40.054;4.110;2023-05-16T20:57:16;18.52;;;5.15;;
73239;SDS011;61452;40.054;4.110;2023-05-16T21:02:18;13.80;;;4.93;;
73239;SDS011;61452;40.054;4.110;2023-05-16T21:07:20;16.80;;;4.70;;
73239;SDS011;61452;40.054;4.110;2023-05-16T21:12:22;14.73;;;5.07;;
73239;SDS011;61452;40.054;4.110;2023-05-16T21:17:24;11.18;;;4.68;;
73239;SDS011;61452;40.054;4.110;2023-05-16T21:22:26;11.80;;;3.47;;
73239;SDS011;61452;40.054;4.110;2023-05-16T21:27:29;11.82;;;4.32;;
73239;SDS011;61452;40.054;4.110;2023-05-16T21:32:31;14.75;;;4.35;;
73239;SDS011;61452;40.054;4.110;2023-05-16T21:37:34;13.18;;;4.28;;
73239;SDS011;61452;40.054;4.110;2023-05-16T21:42:36;13.18;;;4.88;;
73239;SDS011;61452;40.054;4.110;2023-05-16T21:47:38;12.90;;;3.63;;
73239;SDS011;61452;40.054;4.110;2023-05-16T21:52:41;18.15;;;4.65;;
73239;SDS011;61452;40.054;4.110;2023-05-16T21:57:43;20.50;;;4.57;;
73239;SDS011;61452;40.054;4.110;2023-05-16T22:02:45;15.95;;;4.25;;
73239;SDS011;61452;40.054;4.110;2023-05-16T22:07:49;11.88;;;4.45;;
73239;SDS011;61452;40.054;4.110;2023-05-16T22:12:51;16.75;;;4.15;;
73239;SDS011;61452;40.054;4.110;2023-05-16T22:17:53;15.60;;;4.00;;
73239;SDS011;61452;40.054;4.110;2023-05-16T22:22:58;14.32;;;3.70;;
73239;SDS011;61452;40.054;4.110;2023-05-16T22:28:00;13.93;;;4.55;;
73239;SDS011;61452;40.054;4.110;2023-05-16T22:33:02;15.85;;;3.88;;
73239;SDS011;61452;40.054;4.110;2023-05-16T22:38:05;26.23;;;5.28;;
73239;SDS011;61452;40.054;4.110;2023-05-16T22:43:07;13.55;;;3.75;;
73239;SDS011;61452;40.054;4.110;2023-05-16T22:48:09;15.40;;;4.03;;
73239;SDS011;61452;40.054;4.110;2023-05-16T22:53:11;15.45;;;4.72;;
73239;SDS011;61452;40.054;4.110;2023-05-16T22:58:13;17.27;;;4.63;;
73239;SDS011;61452;40.054;4.110;2023-05-16T23:03:15;17.30;;;4.65;;
73239;SDS011;61452;40.054;4.110;2023-05-16T23:08:17;16.45;;;4.28;;
73239;SDS011;61452;40.054;4.110;2023-05-16T23:13:19;15.48;;;5.05;;
73239;SDS011;61452;40.054;4.110;2023-05-16T23:18:21;17.63;;;5.45;;
73239;SDS011;61452;40.054;4.110;2023-05-16T23:23:24;17.92;;;4.13;;
73239;SDS011;61452;40.054;4.110;2023-05-16T23:28:26;16.08;;;4.88;;
73239;SDS011;61452;40.054;4.110;2023-05-16T23:33:28;19.80;;;4.93;;
73239;SDS011;61452;40.054;4.110;2023-05-16T23:38:30;15.50;;;4.80;;
73239;SDS011;61452;40.054;4.110;2023-05-16T23:43:32;21.65;;;4.63;;
73239;SDS011;61452;40.054;4.110;2023-05-16T23:48:34;21.10;;;5.93;;
73239;SDS011;61452;40.054;4.110;2023-05-16T23:53:37;28.08;;;6.72;;
73239;SDS011;61452;40.054;4.110;2023-05-16T23:58:39;23.63;;;5.72;;
